createdAt,value
2022-07-26T00:01:19.732Z,99392.78
2022-07-26T00:03:49.848Z,99381.94
2022-07-26T00:06:18.915Z,99381.22
2022-07-26T00:08:48.044Z,99381.63
2022-07-26T00:11:17.167Z,99376.22
2022-07-26T00:13:46.180Z,99379.12
2022-07-26T00:16:14.969Z,99376.69
2022-07-26T00:18:43.143Z,99381.28
2022-07-26T00:21:11.856Z,99371.62
2022-07-26T00:23:40.307Z,99371.59
2022-07-26T00:26:08.646Z,99365.78
2022-07-26T00:28:37.829Z,99369.06
2022-07-26T00:31:06.343Z,99357.59
2022-07-26T00:33:34.866Z,99364.38
2022-07-26T00:36:03.298Z,99356.75
2022-07-26T00:38:31.791Z,99360.78
2022-07-26T00:40:59.978Z,99358.13
2022-07-26T00:43:28.113Z,99366.75
2022-07-26T00:45:57.411Z,99358.63
2022-07-26T00:48:26.135Z,99357.56
2022-07-26T00:50:55.453Z,99356.16
2022-07-26T00:53:24.072Z,99355.13
2022-07-26T00:55:53.465Z,99359.03
2022-07-26T00:58:21.671Z,99347.19
2022-07-26T01:00:50.229Z,99355.25
2022-07-26T01:03:18.483Z,99348.47
2022-07-26T01:05:46.622Z,99351.94
2022-07-26T01:08:15.089Z,99340.25
2022-07-26T01:10:43.863Z,99341.53
2022-07-26T01:13:13.247Z,99337.97
2022-07-26T01:15:41.691Z,99326.72
2022-07-26T01:18:09.908Z,99328.88
2022-07-26T01:20:38.650Z,99331.50
2022-07-26T01:23:08.194Z,99332.91
2022-07-26T01:25:43.364Z,99333.97
2022-07-26T01:28:19.777Z,99329.69
2022-07-26T01:30:49.740Z,99313.78
2022-07-26T01:33:18.506Z,99317.34
2022-07-26T01:35:46.594Z,99321.97
2022-07-26T01:38:14.785Z,99314.75
2022-07-26T01:40:43.466Z,99315.44
2022-07-26T01:43:11.626Z,99311.50
2022-07-26T01:45:39.853Z,99309.22
2022-07-26T01:48:11.610Z,99306.69
2022-07-26T01:50:39.728Z,99305.63
2022-07-26T01:53:07.973Z,99310.38
2022-07-26T01:55:37.322Z,99301.72
2022-07-26T01:58:06.474Z,99297.03
2022-07-26T02:00:34.613Z,99302.00
2022-07-26T02:03:03.739Z,99298.44
2022-07-26T02:05:32.086Z,99301.88
2022-07-26T02:08:00.664Z,99298.22
2022-07-26T02:10:47.973Z,99298.22
2022-07-26T02:13:16.239Z,99305.25
2022-07-26T02:15:44.699Z,99294.72
2022-07-26T02:18:13.165Z,99302.28
2022-07-26T02:20:41.320Z,99291.34
2022-07-26T02:23:09.819Z,99305.13
2022-07-26T02:25:38.077Z,99295.47
2022-07-26T02:28:06.245Z,99296.62
2022-07-26T02:30:34.814Z,99294.63
2022-07-26T02:33:03.441Z,99291.28
2022-07-26T02:35:32.086Z,99295.19
2022-07-26T02:38:09.323Z,99299.22
2022-07-26T02:40:39.907Z,99303.28
2022-07-26T02:43:09.150Z,99301.88
2022-07-26T02:45:37.974Z,99304.16
2022-07-26T02:48:06.861Z,99308.78
2022-07-26T02:50:35.709Z,99308.97
2022-07-26T02:53:04.166Z,99304.75
2022-07-26T02:55:32.295Z,99305.94
2022-07-26T02:58:00.953Z,99297.97
2022-07-26T03:00:29.577Z,99296.38
2022-07-26T03:02:57.788Z,99304.16
2022-07-26T03:05:26.298Z,99299.69
2022-07-26T03:07:54.371Z,99300.75
2022-07-26T03:10:22.567Z,99300.53
2022-07-26T03:12:51.016Z,99296.59
2022-07-26T03:15:19.325Z,99302.63
2022-07-26T03:17:47.540Z,99301.38
2022-07-26T03:20:16.147Z,99306.75
2022-07-26T03:22:44.405Z,99310.84
2022-07-26T03:25:12.779Z,99315.09
2022-07-26T03:27:41.289Z,99308.44
2022-07-26T03:30:10.097Z,99303.41
2022-07-26T03:32:38.638Z,99303.78
2022-07-26T03:35:08.175Z,99303.47
2022-07-26T03:37:46.260Z,99307.94
2022-07-26T03:40:16.575Z,99302.19
2022-07-26T03:42:46.222Z,99303.78
2022-07-26T03:45:16.124Z,99298.06
2022-07-26T03:47:44.330Z,99300.59
2022-07-26T03:50:13.882Z,99286.31
2022-07-26T03:52:42.577Z,99293.91
2022-07-26T03:55:29.352Z,99281.03
2022-07-26T03:57:57.848Z,99287.00
2022-07-26T04:00:26.029Z,99289.84
2022-07-26T04:02:54.796Z,99290.16
2022-07-26T04:05:23.495Z,99281.72
2022-07-26T04:07:53.187Z,99282.38
2022-07-26T04:10:23.407Z,99290.56
2022-07-26T04:12:51.600Z,99278.72
2022-07-26T04:15:21.300Z,99274.66
2022-07-26T04:17:50.109Z,99269.16
2022-07-26T04:20:18.336Z,99281.34
2022-07-26T04:22:46.642Z,99274.66
2022-07-26T04:25:15.435Z,99279.97
2022-07-26T04:27:43.566Z,99268.13
2022-07-26T04:30:15.042Z,99274.69
2022-07-26T04:32:46.500Z,99285.94
2022-07-26T04:35:15.953Z,99291.91
2022-07-26T04:37:45.594Z,99307.56
2022-07-26T04:40:22.234Z,99319.56
2022-07-26T04:42:52.518Z,99321.72
2022-07-26T04:45:21.294Z,99318.50
2022-07-26T04:47:50.552Z,99310.66
2022-07-26T04:50:20.599Z,99306.50
2022-07-26T04:52:52.731Z,99310.44
2022-07-26T04:55:21.736Z,99318.38
2022-07-26T04:57:50.644Z,99306.34
2022-07-26T05:00:24.252Z,99315.84
2022-07-26T05:02:55.997Z,99303.91
2022-07-26T05:05:25.476Z,99313.75
2022-07-26T05:07:57.533Z,99318.16
2022-07-26T05:10:36.772Z,99312.41
2022-07-26T05:13:06.595Z,99292.13
2022-07-26T05:15:36.917Z,99301.47
2022-07-26T05:18:10.564Z,99303.16
2022-07-26T05:20:41.808Z,99296.44
2022-07-26T05:23:10.636Z,99303.84
2022-07-26T05:25:39.308Z,99306.59
2022-07-26T05:28:07.966Z,99300.09
2022-07-26T05:30:37.063Z,99314.31
2022-07-26T05:33:05.169Z,99310.91
2022-07-26T05:35:33.328Z,99306.28
2022-07-26T05:38:01.917Z,99310.97
2022-07-26T05:40:30.241Z,99323.78
2022-07-26T05:42:58.330Z,99311.28
2022-07-26T05:45:26.977Z,99302.16
2022-07-26T05:47:55.764Z,99301.50
2022-07-26T05:50:23.897Z,99299.69
2022-07-26T05:52:52.355Z,99312.00
2022-07-26T05:55:20.675Z,99313.63
2022-07-26T05:57:49.680Z,99314.47
2022-07-26T06:00:19.118Z,99301.94
2022-07-26T06:02:47.637Z,99299.84
2022-07-26T06:05:16.003Z,99299.25
2022-07-26T06:07:44.447Z,99306.50
2022-07-26T06:10:12.879Z,99301.44
2022-07-26T06:12:41.119Z,99313.72
2022-07-26T06:15:15.426Z,99297.97
2022-07-26T06:17:44.529Z,99306.78
2022-07-26T06:20:12.894Z,99313.59
2022-07-26T06:22:41.037Z,99309.69
2022-07-26T06:25:09.783Z,99304.22
2022-07-26T06:27:38.234Z,99302.03
2022-07-26T06:30:08.094Z,99312.03
2022-07-26T06:32:37.250Z,99307.41
2022-07-26T06:35:05.874Z,99306.13
2022-07-26T06:37:37.123Z,99309.63
2022-07-26T06:40:08.167Z,99301.44
2022-07-26T06:42:36.803Z,99308.91
2022-07-26T06:45:06.004Z,99307.84
2022-07-26T06:47:35.536Z,99306.53
2022-07-26T06:50:04.199Z,99301.44
2022-07-26T06:52:33.002Z,99304.62
2022-07-26T06:55:02.684Z,99292.87
2022-07-26T06:57:31.136Z,99304.09
2022-07-26T06:59:59.194Z,99286.44
2022-07-26T07:02:27.914Z,99285.84
2022-07-26T07:04:56.042Z,99281.81
2022-07-26T07:07:24.277Z,99286.59
2022-07-26T07:09:56.581Z,99281.44
2022-07-26T07:12:24.732Z,99276.50
2022-07-26T07:14:52.841Z,99274.78
2022-07-26T07:17:21.719Z,99286.00
2022-07-26T07:19:50.033Z,99283.13
2022-07-26T07:22:18.085Z,99288.78
2022-07-26T07:24:46.717Z,99286.88
2022-07-26T07:27:16.694Z,99284.78
2022-07-26T07:29:45.165Z,99298.94
2022-07-26T07:32:15.874Z,99298.59
2022-07-26T07:34:49.092Z,99298.88
2022-07-26T07:37:19.898Z,99307.84
2022-07-26T07:39:50.625Z,99315.37
2022-07-26T07:42:19.894Z,99319.03
2022-07-26T07:44:50.010Z,99316.78
2022-07-26T07:47:18.192Z,99328.91
2022-07-26T07:49:46.933Z,99322.50
2022-07-26T07:52:15.049Z,99324.50
2022-07-26T07:54:43.609Z,99314.28
2022-07-26T07:57:12.193Z,99318.31
2022-07-26T07:59:42.883Z,99315.25
2022-07-26T08:02:12.936Z,99322.16
2022-07-26T08:04:41.742Z,99329.19
2022-07-26T08:07:09.914Z,99346.34
2022-07-26T08:09:38.042Z,99337.97
2022-07-26T08:12:11.683Z,99335.47
2022-07-26T08:14:39.960Z,99338.66
2022-07-26T08:17:09.713Z,99337.75
2022-07-26T08:19:41.494Z,99341.44
2022-07-26T08:22:11.320Z,99339.91
2022-07-26T08:24:40.633Z,99361.91
2022-07-26T08:27:08.825Z,99349.75
2022-07-26T08:29:37.081Z,99342.00
2022-07-26T08:32:06.220Z,99328.97
2022-07-26T08:34:34.437Z,99334.72
2022-07-26T08:37:18.341Z,99333.81
2022-07-26T08:39:47.839Z,99344.34
2022-07-26T08:42:22.459Z,99330.00
2022-07-26T08:44:52.625Z,99327.34
2022-07-26T08:47:39.835Z,99325.13
2022-07-26T08:50:09.044Z,99330.81
2022-07-26T08:52:43.401Z,99337.66
2022-07-26T08:55:16.900Z,99332.03
2022-07-26T08:57:45.549Z,99345.53
2022-07-26T09:00:22.656Z,99321.03
2022-07-26T09:02:52.397Z,99330.19
2022-07-26T09:05:27.723Z,99327.66
2022-07-26T09:07:57.149Z,99350.91
2022-07-26T09:10:26.489Z,99344.16
2022-07-26T09:12:56.577Z,99342.91
2022-07-26T09:15:26.958Z,99354.03
2022-07-26T09:17:57.874Z,99346.37
2022-07-26T09:20:30.984Z,99361.16
2022-07-26T09:23:02.891Z,99359.72
2022-07-26T09:25:35.785Z,99366.84
2022-07-26T09:28:21.110Z,99371.09
2022-07-26T09:31:00.009Z,99377.75
2022-07-26T09:33:47.516Z,99384.88
2022-07-26T09:36:16.788Z,99403.97
2022-07-26T09:38:46.505Z,99414.72
2022-07-26T09:41:35.818Z,99426.22
2022-07-26T09:44:06.711Z,99434.53
2022-07-26T09:46:36.469Z,99448.94
2022-07-26T09:49:19.345Z,99460.63
2022-07-26T09:51:53.522Z,99467.56
2022-07-26T09:54:30.999Z,99481.16
2022-07-26T09:56:59.529Z,99485.38
2022-07-26T09:59:29.671Z,99494.56
2022-07-26T10:01:59.475Z,99483.59
2022-07-26T10:04:28.056Z,99491.66
2022-07-26T10:06:58.235Z,99506.25
2022-07-26T10:09:34.356Z,99527.16
2022-07-26T10:12:07.098Z,99525.81
2022-07-26T10:14:51.493Z,99519.94
2022-07-26T10:17:31.398Z,99515.63
2022-07-26T10:20:02.461Z,99485.19
2022-07-26T10:22:43.569Z,99445.22
2022-07-26T10:25:17.901Z,99411.00
2022-07-26T10:27:56.122Z,99406.75
2022-07-26T10:30:33.829Z,99426.38
2022-07-26T10:33:10.357Z,99434.28
2022-07-26T10:35:41.308Z,99422.66
2022-07-26T10:38:13.145Z,99437.66
2022-07-26T10:40:58.895Z,99448.81
2022-07-26T10:43:43.497Z,99456.19
2022-07-26T10:46:18.201Z,99475.59
2022-07-26T10:49:00.081Z,99483.63
2022-07-26T10:51:33.717Z,99494.81
2022-07-26T10:54:07.875Z,99488.56
2022-07-26T10:56:36.881Z,99489.56
2022-07-26T10:59:06.321Z,99485.78
2022-07-26T11:01:40.864Z,99493.16
2022-07-26T11:04:19.681Z,99494.53
2022-07-26T11:06:48.908Z,99497.31
2022-07-26T11:09:21.158Z,99495.81
2022-07-26T11:11:51.962Z,99498.69
2022-07-26T11:14:20.343Z,99486.78
2022-07-26T11:16:50.400Z,99499.13
2022-07-26T11:19:21.071Z,99489.94
2022-07-26T11:21:58.956Z,99484.16
2022-07-26T11:24:28.786Z,99487.28
2022-07-26T11:27:03.699Z,99492.72
2022-07-26T11:29:38.167Z,99486.34
2022-07-26T11:32:25.381Z,99486.62
2022-07-26T11:35:01.804Z,99473.69
2022-07-26T11:37:31.026Z,99472.84
2022-07-26T11:39:59.119Z,99479.09
2022-07-26T11:42:27.448Z,99476.19
2022-07-26T11:44:55.976Z,99470.41
2022-07-26T11:47:26.369Z,99471.44
2022-07-26T11:52:43.821Z,99480.91
2022-07-26T11:55:12.625Z,99474.53
2022-07-26T11:57:40.960Z,99484.09
2022-07-26T12:00:09.997Z,99473.09
2022-07-26T12:02:39.870Z,99480.19
2022-07-26T12:05:18.393Z,99477.28
2022-07-26T12:08:02.851Z,99471.56
2022-07-26T12:10:31.837Z,99477.91
2022-07-26T12:13:10.948Z,99475.06
2022-07-26T12:15:51.362Z,99459.63
2022-07-26T12:18:24.806Z,99470.94
2022-07-26T12:21:03.618Z,99466.87
2022-07-26T12:23:48.691Z,99465.78
2022-07-26T12:26:27.745Z,99458.91
2022-07-26T12:28:57.870Z,99451.22
2022-07-26T12:31:32.066Z,99443.38
2022-07-26T12:34:00.493Z,99440.78
2022-07-26T12:36:30.172Z,99448.03
2022-07-26T12:39:00.211Z,99452.31
2022-07-26T12:41:36.271Z,99459.31
2022-07-26T12:44:11.922Z,99456.78
2022-07-26T12:46:41.090Z,99467.78
2022-07-26T12:49:09.517Z,99464.41
2022-07-26T12:51:37.723Z,99476.19
2022-07-26T12:54:06.849Z,99473.97
2022-07-26T12:56:35.412Z,99478.09
2022-07-26T12:59:03.783Z,99465.75
2022-07-26T13:01:33.264Z,99474.03
2022-07-26T13:04:01.655Z,99469.47
2022-07-26T13:06:30.041Z,99467.06
2022-07-26T13:08:58.736Z,99470.38
2022-07-26T13:11:27.054Z,99468.28
2022-07-26T13:13:55.879Z,99471.28
2022-07-26T13:16:24.510Z,99450.06
2022-07-26T13:18:52.830Z,99458.13
2022-07-26T13:21:21.085Z,99451.69
2022-07-26T13:23:49.758Z,99459.25
2022-07-26T13:26:17.901Z,99455.53
2022-07-26T13:28:49.572Z,99440.62
2022-07-26T13:31:18.898Z,99458.38
2022-07-26T13:33:47.094Z,99462.09
2022-07-26T13:36:15.346Z,99478.47
2022-07-26T13:38:44.073Z,99477.75
2022-07-26T13:41:12.399Z,99472.28
2022-07-26T13:43:40.602Z,99473.47
2022-07-26T13:46:09.157Z,99473.34
2022-07-26T13:48:37.446Z,99468.94
2022-07-26T13:51:06.032Z,99469.75
2022-07-26T13:53:36.312Z,99469.75
2022-07-26T13:56:20.507Z,99467.44
2022-07-26T13:58:49.215Z,99464.06
2022-07-26T14:01:17.529Z,99468.81
2022-07-26T14:03:46.001Z,99465.97
2022-07-26T14:06:14.079Z,99475.25
2022-07-26T14:08:45.037Z,99474.47
2022-07-26T14:11:13.587Z,99477.19
2022-07-26T14:13:41.800Z,99477.19
2022-07-26T14:16:10.096Z,99466.19
2022-07-26T14:18:38.675Z,99467.31
2022-07-26T14:21:10.526Z,99474.63
2022-07-26T14:23:39.871Z,99479.59
2022-07-26T14:26:08.114Z,99471.88
2022-07-26T14:28:36.252Z,99470.28
2022-07-26T14:31:04.740Z,99468.91
2022-07-26T14:33:33.053Z,99471.62
2022-07-26T14:36:02.903Z,99483.16
2022-07-26T14:38:31.529Z,99475.47
2022-07-26T14:41:01.146Z,99474.03
2022-07-26T14:43:29.270Z,99475.22
2022-07-26T14:45:57.849Z,99466.78
2022-07-26T14:48:51.708Z,99462.16
2022-07-26T14:51:14.722Z,99465.94
2022-07-26T14:53:43.276Z,99464.09
2022-07-26T14:56:11.462Z,99461.81
2022-07-26T14:58:39.857Z,99469.75
2022-07-26T15:01:08.559Z,99458.41
2022-07-26T15:03:36.849Z,99456.56
2022-07-26T15:06:05.278Z,99462.34
2022-07-26T15:08:33.577Z,99465.75
2022-07-26T15:11:01.838Z,99460.87
2022-07-26T15:13:30.331Z,99458.31
2022-07-26T15:15:58.899Z,99456.94
2022-07-26T15:18:27.021Z,99450.22
2022-07-26T15:20:55.416Z,99448.53
2022-07-26T15:23:24.180Z,99442.00
2022-07-26T15:25:52.718Z,99438.03
2022-07-26T15:28:21.239Z,99443.56
2022-07-26T15:30:50.101Z,99446.78
2022-07-26T15:33:20.104Z,99449.50
2022-07-26T15:35:49.547Z,99446.13
2022-07-26T15:38:17.718Z,99450.13
2022-07-26T15:40:45.929Z,99445.09
2022-07-26T15:43:22.164Z,99439.81
2022-07-26T15:45:55.057Z,99431.88
2022-07-26T15:48:23.780Z,99432.09
2022-07-26T15:50:52.034Z,99423.00
2022-07-26T15:53:20.194Z,99424.50
2022-07-26T15:55:48.819Z,99414.78
2022-07-26T15:58:17.004Z,99423.50
2022-07-26T16:00:45.209Z,99424.44
2022-07-26T16:03:14.075Z,99421.31
2022-07-26T16:05:42.203Z,99413.69
2022-07-26T16:08:10.429Z,99411.38
2022-07-26T16:10:38.986Z,99415.66
2022-07-26T16:13:07.065Z,99417.97
2022-07-26T16:15:35.154Z,99420.94
2022-07-26T16:18:06.660Z,99419.06
2022-07-26T16:20:35.783Z,99420.38
2022-07-26T16:23:04.307Z,99422.53
2022-07-26T16:25:32.575Z,99417.25
2022-07-26T16:28:00.744Z,99420.25
2022-07-26T16:30:29.347Z,99431.41
2022-07-26T16:32:57.543Z,99425.81
2022-07-26T16:35:25.694Z,99426.53
2022-07-26T16:37:54.256Z,99430.22
2022-07-26T16:40:22.559Z,99433.81
2022-07-26T16:42:50.683Z,99433.06
2022-07-26T16:45:19.310Z,99429.31
2022-07-26T16:47:47.585Z,99427.28
2022-07-26T16:50:27.409Z,99420.41
2022-07-26T16:52:56.655Z,99419.91
2022-07-26T16:55:24.963Z,99427.69
2022-07-26T16:57:53.125Z,99439.19
2022-07-26T17:00:22.451Z,99446.72
2022-07-26T17:02:50.862Z,99437.09
2022-07-26T17:05:18.952Z,99458.75
2022-07-26T17:07:47.590Z,99448.72
2022-07-26T17:10:15.726Z,99452.87
2022-07-26T17:12:43.977Z,99460.31
2022-07-26T17:15:12.834Z,99453.97
2022-07-26T17:17:44.639Z,99451.31
2022-07-26T17:20:16.036Z,99456.12
2022-07-26T17:22:44.205Z,99461.03
2022-07-26T17:25:12.257Z,99470.38
2022-07-26T17:27:40.970Z,99466.66
2022-07-26T17:30:10.026Z,99460.75
2022-07-26T17:32:38.601Z,99465.94
2022-07-26T17:35:08.476Z,99471.00
2022-07-26T17:37:36.908Z,99461.22
2022-07-26T17:40:07.766Z,99464.00
2022-07-26T17:42:39.832Z,99461.03
2022-07-26T17:45:08.596Z,99456.75
2022-07-26T17:47:37.178Z,99458.69
2022-07-26T17:52:55.221Z,99448.16
2022-07-26T17:55:24.018Z,99454.13
2022-07-26T17:57:52.762Z,99458.84
2022-07-26T18:00:23.080Z,99471.12
2022-07-26T18:02:51.585Z,99464.69
2022-07-26T18:05:20.704Z,99461.59
2022-07-26T18:07:49.880Z,99460.53
2022-07-26T18:10:19.613Z,99459.78
2022-07-26T18:12:47.724Z,99459.69
2022-07-26T18:15:16.068Z,99466.47
2022-07-26T18:17:44.610Z,99464.72
2022-07-26T18:20:13.139Z,99467.13
2022-07-26T18:22:41.227Z,99471.31
2022-07-26T18:25:10.004Z,99483.56
2022-07-26T18:27:38.803Z,99479.75
2022-07-26T18:30:07.350Z,99482.78
2022-07-26T18:32:35.811Z,99481.47
2022-07-26T18:35:04.261Z,99482.91
2022-07-26T18:37:32.842Z,99483.59
2022-07-26T18:40:01.921Z,99482.72
2022-07-26T18:42:30.414Z,99491.78
2022-07-26T18:44:58.631Z,99496.63
2022-07-26T18:47:27.463Z,99494.47
2022-07-26T18:49:55.611Z,99497.53
2022-07-26T18:52:31.543Z,99498.28
2022-07-26T18:55:02.778Z,99496.13
2022-07-26T18:57:31.072Z,99506.09
2022-07-26T18:59:59.520Z,99506.66
2022-07-26T19:02:28.105Z,99517.59
2022-07-26T19:04:56.258Z,99508.41
2022-07-26T19:07:24.753Z,99503.44
2022-07-26T19:09:58.199Z,99508.19
2022-07-26T19:14:55.887Z,99507.59
2022-07-26T19:17:23.962Z,99510.41
2022-07-26T19:19:53.092Z,99506.31
2022-07-26T19:22:22.641Z,99523.16
2022-07-26T19:24:51.250Z,99521.63
2022-07-26T19:27:19.848Z,99518.41
2022-07-26T19:29:48.904Z,99524.06
2022-07-26T19:32:17.422Z,99519.91
2022-07-26T19:34:46.028Z,99525.47
2022-07-26T19:37:19.818Z,99518.69
2022-07-26T19:39:50.218Z,99530.88
2022-07-26T19:42:19.988Z,99528.59
2022-07-26T19:44:48.521Z,99521.09
2022-07-26T19:47:16.810Z,99519.84
2022-07-26T19:49:45.007Z,99525.38
2022-07-26T19:52:13.644Z,99524.78
2022-07-26T19:54:41.912Z,99524.56
2022-07-26T19:57:10.076Z,99523.97
2022-07-26T19:59:38.638Z,99518.69
2022-07-26T20:02:07.139Z,99526.97
2022-07-26T20:04:35.812Z,99520.53
2022-07-26T20:07:04.366Z,99531.47
2022-07-26T20:09:32.845Z,99532.88
2022-07-26T20:12:01.554Z,99524.44
2022-07-26T20:14:29.733Z,99525.38
2022-07-26T20:16:58.316Z,99536.53
2022-07-26T20:19:28.175Z,99537.81
2022-07-26T20:21:56.609Z,99542.53
2022-07-26T20:24:25.596Z,99544.84
2022-07-26T20:26:54.095Z,99548.53
2022-07-26T20:29:22.285Z,99546.91
2022-07-26T20:31:50.478Z,99550.84
2022-07-26T20:34:18.965Z,99560.16
2022-07-26T20:36:47.663Z,99561.56
2022-07-26T20:39:15.958Z,99561.13
2022-07-26T20:41:44.409Z,99563.06
2022-07-26T20:44:14.345Z,99572.03
2022-07-26T20:46:42.684Z,99563.38
2022-07-26T20:49:11.555Z,99569.38
2022-07-26T20:51:40.370Z,99561.31
2022-07-26T20:54:10.369Z,99567.19
2022-07-26T20:56:38.968Z,99575.84
2022-07-26T20:59:07.216Z,99572.56
2022-07-26T21:01:35.664Z,99562.28
2022-07-26T21:04:04.266Z,99557.09
2022-07-26T21:06:33.652Z,99557.59
2022-07-26T21:09:09.001Z,99563.38
2022-07-26T21:11:39.304Z,99559.56
2022-07-26T21:14:07.437Z,99564.56
2022-07-26T21:16:36.973Z,99560.91
2022-07-26T21:19:06.067Z,99559.97
2022-07-26T21:21:36.450Z,99560.91
2022-07-26T21:24:06.358Z,99567.53
2022-07-26T21:26:34.864Z,99568.22
2022-07-26T21:29:03.341Z,99567.22
2022-07-26T21:31:31.750Z,99562.47
2022-07-26T21:34:00.252Z,99567.91
2022-07-26T21:36:28.402Z,99562.94
2022-07-26T21:38:56.529Z,99572.78
2022-07-26T21:41:25.032Z,99570.41
2022-07-26T21:43:53.104Z,99574.03
2022-07-26T21:46:21.248Z,99574.81
2022-07-26T21:48:49.774Z,99576.94
2022-07-26T21:51:18.408Z,99580.75
2022-07-26T21:53:46.712Z,99581.31
2022-07-26T21:56:15.419Z,99586.31
2022-07-26T21:58:43.637Z,99581.37
2022-07-26T22:01:12.745Z,99582.22
2022-07-26T22:03:42.315Z,99576.59
2022-07-26T22:06:11.240Z,99582.00
2022-07-26T22:08:39.925Z,99570.00
2022-07-26T22:11:08.905Z,99572.19
2022-07-26T22:13:37.915Z,99572.28
2022-07-26T22:16:06.852Z,99583.56
2022-07-26T22:18:35.332Z,99577.78
2022-07-26T22:21:03.937Z,99577.34
2022-07-26T22:23:32.124Z,99573.69
2022-07-26T22:26:02.285Z,99567.44
2022-07-26T22:28:31.781Z,99564.25
2022-07-26T22:31:00.428Z,99570.22
2022-07-26T22:33:28.926Z,99576.69
2022-07-26T22:35:57.127Z,99568.00
2022-07-26T22:38:25.573Z,99563.53
2022-07-26T22:40:54.265Z,99563.22
2022-07-26T22:43:22.395Z,99564.56
2022-07-26T22:45:50.863Z,99565.41
2022-07-26T22:48:19.534Z,99567.91
2022-07-26T22:50:47.746Z,99582.25
2022-07-26T22:53:16.500Z,99579.81
2022-07-26T22:55:45.187Z,99577.50
2022-07-26T22:58:13.721Z,99580.75
2022-07-26T23:00:42.257Z,99586.00
2022-07-26T23:03:19.772Z,99580.47
2022-07-26T23:05:50.611Z,99591.53
2022-07-26T23:11:09.163Z,99583.81
2022-07-26T23:13:37.590Z,99593.00
2022-07-26T23:16:05.974Z,99592.41
2022-07-26T23:18:35.284Z,99589.84
2022-07-26T23:21:04.364Z,99592.41
2022-07-26T23:23:32.938Z,99599.47
2022-07-26T23:26:01.818Z,99602.91
2022-07-26T23:28:35.685Z,99603.50
2022-07-26T23:31:11.389Z,99604.91
2022-07-26T23:33:50.492Z,99595.28
2022-07-26T23:36:26.511Z,99601.19
2022-07-26T23:38:59.166Z,99603.16
2022-07-26T23:41:28.182Z,99599.34
2022-07-26T23:43:57.006Z,99600.13
2022-07-26T23:46:26.648Z,99602.28
2022-07-26T23:48:55.505Z,99607.50
2022-07-26T23:51:24.710Z,99601.41
2022-07-26T23:53:53.296Z,99601.59
2022-07-26T23:56:21.814Z,99374.56
2022-07-26T23:58:50.919Z,99610.31
